sensor_id;sensor_type;location;lat;lon;timestamp;pressure;altitude;pressure_sealevel;temperature;humidity
39555;BME280;25231;48.746;9.234;2023-03-03T00:00:48;96876.19;;;2.67;100.00
39555;BME280;25231;48.746;9.234;2023-03-03T00:03:21;96879.00;;;2.58;100.00
39555;BME280;25231;48.746;9.234;2023-03-03T00:05:47;96873.84;;;2.58;100.00
39555;BME280;25231;48.746;9.234;2023-03-03T00:08:13;96874.78;;;2.42;100.00
39555;BME280;25231;48.746;9.234;2023-03-03T00:10:39;96875.41;;;2.44;100.00
39555;BME280;25231;48.746;9.234;2023-03-03T00:13:12;96880.75;;;2.42;100.00
39555;BME280;25231;48.746;9.234;2023-03-03T00:15:39;96871.25;;;2.35;100.00
39555;BME280;25231;48.746;9.234;2023-03-03T00:18:16;96877.25;;;2.35;100.00
39555;BME280;25231;48.746;9.234;2023-03-03T00:20:47;96876.94;;;2.30;100.00
39555;BME280;25231;48.746;9.234;2023-03-03T00:23:18;96873.75;;;2.28;100.00
39555;BME280;25231;48.746;9.234;2023-03-03T00:25:45;96875.88;;;2.25;100.00
39555;BME280;25231;48.746;9.234;2023-03-03T00:28:29;96877.72;;;2.16;100.00
39555;BME280;25231;48.746;9.234;2023-03-03T00:30:57;96872.97;;;1.97;100.00
39555;BME280;25231;48.746;9.234;2023-03-03T00:33:30;96873.34;;;1.86;100.00
39555;BME280;25231;48.746;9.234;2023-03-03T00:36:22;96869.50;;;1.82;100.00
39555;BME280;25231;48.746;9.234;2023-03-03T00:38:52;96866.94;;;1.82;100.00
39555;BME280;25231;48.746;9.234;2023-03-03T00:41:24;96869.84;;;1.79;100.00
39555;BME280;25231;48.746;9.234;2023-03-03T00:43:50;96867.44;;;1.77;100.00
39555;BME280;25231;48.746;9.234;2023-03-03T00:46:18;96871.50;;;1.72;100.00
39555;BME280;25231;48.746;9.234;2023-03-03T00:48:44;96867.94;;;1.73;100.00
39555;BME280;25231;48.746;9.234;2023-03-03T00:53:48;96867.94;;;1.73;100.00
39555;BME280;25231;48.746;9.234;2023-03-03T00:56:14;96862.59;;;1.74;100.00
39555;BME280;25231;48.746;9.234;2023-03-03T00:58:39;96868.91;;;1.72;100.00
39555;BME280;25231;48.746;9.234;2023-03-03T01:01:05;96873.72;;;1.75;100.00
39555;BME280;25231;48.746;9.234;2023-03-03T01:03:30;96869.84;;;1.79;100.00
39555;BME280;25231;48.746;9.234;2023-03-03T01:05:56;96866.78;;;1.75;100.00
39555;BME280;25231;48.746;9.234;2023-03-03T01:08:22;96872.19;;;1.65;100.00
39555;BME280;25231;48.746;9.234;2023-03-03T01:10:53;96856.00;;;1.72;100.00
39555;BME280;25231;48.746;9.234;2023-03-03T01:13:21;96866.19;;;1.65;100.00
39555;BME280;25231;48.746;9.234;2023-03-03T01:15:48;96861.53;;;1.60;100.00
39555;BME280;25231;48.746;9.234;2023-03-03T01:18:13;96859.28;;;1.57;100.00
39555;BME280;25231;48.746;9.234;2023-03-03T01:20:39;96869.97;;;1.46;100.00
39555;BME280;25231;48.746;9.234;2023-03-03T01:23:05;96865.63;;;1.47;100.00
39555;BME280;25231;48.746;9.234;2023-03-03T01:25:31;96876.91;;;1.54;100.00
39555;BME280;25231;48.746;9.234;2023-03-03T01:27:57;96865.47;;;1.48;100.00
39555;BME280;25231;48.746;9.234;2023-03-03T01:30:23;96868.56;;;1.44;100.00
39555;BME280;25231;48.746;9.234;2023-03-03T01:32:48;96871.00;;;1.37;100.00
39555;BME280;25231;48.746;9.234;2023-03-03T01:35:14;96866.13;;;1.42;100.00
39555;BME280;25231;48.746;9.234;2023-03-03T01:37:39;96862.94;;;1.32;100.00
39555;BME280;25231;48.746;9.234;2023-03-03T01:40:06;96866.63;;;1.38;100.00
39555;BME280;25231;48.746;9.234;2023-03-03T01:42:33;96874.69;;;1.35;100.00
39555;BME280;25231;48.746;9.234;2023-03-03T01:45:17;96871.66;;;1.39;100.00
39555;BME280;25231;48.746;9.234;2023-03-03T01:47:50;96869.25;;;1.30;100.00
39555;BME280;25231;48.746;9.234;2023-03-03T01:52:52;96864.78;;;1.15;100.00
39555;BME280;25231;48.746;9.234;2023-03-03T01:55:24;96864.25;;;1.28;100.00
39555;BME280;25231;48.746;9.234;2023-03-03T01:57:58;96862.50;;;1.12;100.00
39555;BME280;25231;48.746;9.234;2023-03-03T02:00:25;96863.50;;;1.03;100.00
39555;BME280;25231;48.746;9.234;2023-03-03T02:02:52;96865.25;;;1.19;100.00
39555;BME280;25231;48.746;9.234;2023-03-03T02:05:18;96851.22;;;1.13;100.00
39555;BME280;25231;48.746;9.234;2023-03-03T02:07:44;96853.34;;;1.10;100.00
39555;BME280;25231;48.746;9.234;2023-03-03T02:10:15;96850.25;;;1.06;100.00
39555;BME280;25231;48.746;9.234;2023-03-03T02:12:48;96852.22;;;1.04;100.00
39555;BME280;25231;48.746;9.234;2023-03-03T02:15:31;96846.91;;;1.06;100.00
39555;BME280;25231;48.746;9.234;2023-03-03T02:18:03;96846.41;;;1.02;100.00
39555;BME280;25231;48.746;9.234;2023-03-03T02:20:32;96838.50;;;1.04;100.00
39555;BME280;25231;48.746;9.234;2023-03-03T02:25:38;96834.81;;;0.98;100.00
39555;BME280;25231;48.746;9.234;2023-03-03T02:28:06;96826.56;;;1.03;100.00
39555;BME280;25231;48.746;9.234;2023-03-03T02:30:36;96829.16;;;1.03;100.00
39555;BME280;25231;48.746;9.234;2023-03-03T02:33:02;96829.50;;;1.00;100.00
39555;BME280;25231;48.746;9.234;2023-03-03T02:35:34;96834.16;;;1.04;100.00
39555;BME280;25231;48.746;9.234;2023-03-03T02:38:29;96832.25;;;0.98;100.00
39555;BME280;25231;48.746;9.234;2023-03-03T02:41:02;96832.38;;;1.05;100.00
39555;BME280;25231;48.746;9.234;2023-03-03T02:44:02;96840.53;;;1.24;100.00
39555;BME280;25231;48.746;9.234;2023-03-03T02:46:32;96836.53;;;1.22;100.00
39555;BME280;25231;48.746;9.234;2023-03-03T02:48:58;96835.72;;;1.21;100.00
39555;BME280;25231;48.746;9.234;2023-03-03T02:51:23;96842.81;;;1.28;100.00
39555;BME280;25231;48.746;9.234;2023-03-03T02:53:49;96843.06;;;1.41;100.00
39555;BME280;25231;48.746;9.234;2023-03-03T02:56:14;96846.13;;;1.44;100.00
39555;BME280;25231;48.746;9.234;2023-03-03T02:58:39;96837.72;;;1.50;100.00
39555;BME280;25231;48.746;9.234;2023-03-03T03:01:05;96840.69;;;1.62;100.00
39555;BME280;25231;48.746;9.234;2023-03-03T03:03:30;96841.59;;;1.77;100.00
39555;BME280;25231;48.746;9.234;2023-03-03T03:05:56;96840.66;;;1.70;100.00
39555;BME280;25231;48.746;9.234;2023-03-03T03:08:21;96847.59;;;1.70;100.00
39555;BME280;25231;48.746;9.234;2023-03-03T03:10:47;96842.19;;;1.87;100.00
39555;BME280;25231;48.746;9.234;2023-03-03T03:13:12;96840.13;;;1.83;100.00
39555;BME280;25231;48.746;9.234;2023-03-03T03:15:37;96837.06;;;1.79;100.00
39555;BME280;25231;48.746;9.234;2023-03-03T03:18:03;96844.47;;;1.82;100.00
39555;BME280;25231;48.746;9.234;2023-03-03T03:20:29;96845.56;;;1.88;100.00
39555;BME280;25231;48.746;9.234;2023-03-03T03:22:54;96843.03;;;1.80;100.00
39555;BME280;25231;48.746;9.234;2023-03-03T03:25:19;96843.31;;;1.85;100.00
39555;BME280;25231;48.746;9.234;2023-03-03T03:27:44;96841.66;;;1.92;100.00
39555;BME280;25231;48.746;9.234;2023-03-03T03:30:10;96847.22;;;1.81;100.00
39555;BME280;25231;48.746;9.234;2023-03-03T03:32:35;96845.66;;;1.72;100.00
39555;BME280;25231;48.746;9.234;2023-03-03T03:35:01;96849.66;;;1.82;100.00
39555;BME280;25231;48.746;9.234;2023-03-03T03:37:26;96849.81;;;1.81;100.00
39555;BME280;25231;48.746;9.234;2023-03-03T03:39:52;96840.44;;;1.80;100.00
39555;BME280;25231;48.746;9.234;2023-03-03T03:42:18;96844.34;;;1.76;100.00
39555;BME280;25231;48.746;9.234;2023-03-03T03:44:43;96846.78;;;1.69;100.00
39555;BME280;25231;48.746;9.234;2023-03-03T03:47:09;96839.84;;;1.70;100.00
39555;BME280;25231;48.746;9.234;2023-03-03T03:49:34;96840.28;;;1.81;100.00
39555;BME280;25231;48.746;9.234;2023-03-03T03:51:59;96842.28;;;1.71;100.00
39555;BME280;25231;48.746;9.234;2023-03-03T03:54:25;96845.47;;;1.73;100.00
39555;BME280;25231;48.746;9.234;2023-03-03T03:56:50;96846.13;;;1.75;100.00
39555;BME280;25231;48.746;9.234;2023-03-03T03:59:15;96843.53;;;1.75;100.00
39555;BME280;25231;48.746;9.234;2023-03-03T04:01:41;96845.47;;;1.73;100.00
39555;BME280;25231;48.746;9.234;2023-03-03T04:04:06;96842.44;;;1.70;100.00
39555;BME280;25231;48.746;9.234;2023-03-03T04:06:31;96848.69;;;1.83;100.00
39555;BME280;25231;48.746;9.234;2023-03-03T04:08:57;96845.50;;;1.96;100.00
39555;BME280;25231;48.746;9.234;2023-03-03T04:11:22;96847.00;;;1.90;100.00
39555;BME280;25231;48.746;9.234;2023-03-03T04:13:47;96842.94;;;1.96;100.00
39555;BME280;25231;48.746;9.234;2023-03-03T04:16:13;96847.66;;;1.92;100.00
39555;BME280;25231;48.746;9.234;2023-03-03T04:18:38;96852.53;;;1.87;100.00
39555;BME280;25231;48.746;9.234;2023-03-03T04:21:04;96850.59;;;1.89;100.00
39555;BME280;25231;48.746;9.234;2023-03-03T04:23:29;96854.94;;;1.89;100.00
39555;BME280;25231;48.746;9.234;2023-03-03T04:25:54;96856.66;;;1.96;100.00
39555;BME280;25231;48.746;9.234;2023-03-03T04:28:20;96861.81;;;1.96;100.00
39555;BME280;25231;48.746;9.234;2023-03-03T04:30:46;96863.31;;;1.91;100.00
39555;BME280;25231;48.746;9.234;2023-03-03T04:33:12;96862.06;;;1.87;100.00
39555;BME280;25231;48.746;9.234;2023-03-03T04:35:37;96860.78;;;1.83;100.00
39555;BME280;25231;48.746;9.234;2023-03-03T04:38:02;96872.81;;;1.98;100.00
39555;BME280;25231;48.746;9.234;2023-03-03T04:40:29;96870.91;;;1.92;100.00
39555;BME280;25231;48.746;9.234;2023-03-03T04:42:54;96864.63;;;1.87;100.00
39555;BME280;25231;48.746;9.234;2023-03-03T04:45:20;96859.03;;;1.75;100.00
39555;BME280;25231;48.746;9.234;2023-03-03T04:47:45;96865.59;;;1.86;100.00
39555;BME280;25231;48.746;9.234;2023-03-03T04:50:10;96867.88;;;1.89;100.00
39555;BME280;25231;48.746;9.234;2023-03-03T04:52:36;96862.84;;;1.87;100.00
39555;BME280;25231;48.746;9.234;2023-03-03T04:55:02;96868.84;;;1.88;100.00
39555;BME280;25231;48.746;9.234;2023-03-03T04:57:27;96874.94;;;1.95;100.00
39555;BME280;25231;48.746;9.234;2023-03-03T04:59:53;96875.78;;;1.87;100.00
39555;BME280;25231;48.746;9.234;2023-03-03T05:02:18;96880.53;;;1.76;100.00
39555;BME280;25231;48.746;9.234;2023-03-03T05:04:44;96881.41;;;1.60;100.00
39555;BME280;25231;48.746;9.234;2023-03-03T05:07:09;96879.41;;;1.70;100.00
39555;BME280;25231;48.746;9.234;2023-03-03T05:09:35;96882.50;;;1.65;100.00
39555;BME280;25231;48.746;9.234;2023-03-03T05:12:00;96881.34;;;1.68;100.00
39555;BME280;25231;48.746;9.234;2023-03-03T05:14:26;96879.28;;;1.63;100.00
39555;BME280;25231;48.746;9.234;2023-03-03T05:16:52;96883.19;;;1.59;100.00
39555;BME280;25231;48.746;9.234;2023-03-03T05:19:17;96888.84;;;1.55;100.00
39555;BME280;25231;48.746;9.234;2023-03-03T05:21:43;96884.41;;;1.72;100.00
39555;BME280;25231;48.746;9.234;2023-03-03T05:24:11;96883.31;;;1.66;100.00
39555;BME280;25231;48.746;9.234;2023-03-03T05:26:36;96882.66;;;1.72;100.00
39555;BME280;25231;48.746;9.234;2023-03-03T05:29:02;96887.72;;;1.88;100.00
39555;BME280;25231;48.746;9.234;2023-03-03T05:31:28;96885.28;;;1.95;100.00
39555;BME280;25231;48.746;9.234;2023-03-03T05:33:53;96891.00;;;1.82;100.00
39555;BME280;25231;48.746;9.234;2023-03-03T05:36:19;96887.88;;;1.87;100.00
39555;BME280;25231;48.746;9.234;2023-03-03T05:38:44;96888.91;;;1.78;100.00
39555;BME280;25231;48.746;9.234;2023-03-03T05:41:10;96897.72;;;1.60;100.00
39555;BME280;25231;48.746;9.234;2023-03-03T05:43:35;96887.19;;;1.62;100.00
39555;BME280;25231;48.746;9.234;2023-03-03T05:46:01;96891.38;;;1.63;100.00
39555;BME280;25231;48.746;9.234;2023-03-03T05:48:26;96895.66;;;1.79;100.00
39555;BME280;25231;48.746;9.234;2023-03-03T05:50:52;96897.63;;;1.77;100.00
39555;BME280;25231;48.746;9.234;2023-03-03T05:53:17;96904.06;;;1.81;100.00
39555;BME280;25231;48.746;9.234;2023-03-03T05:55:43;96913.53;;;1.57;100.00
39555;BME280;25231;48.746;9.234;2023-03-03T05:58:08;96913.38;;;1.59;100.00
39555;BME280;25231;48.746;9.234;2023-03-03T06:00:34;96910.44;;;1.62;100.00
39555;BME280;25231;48.746;9.234;2023-03-03T06:03:00;96907.97;;;1.77;100.00
39555;BME280;25231;48.746;9.234;2023-03-03T06:05:25;96912.50;;;1.75;100.00
39555;BME280;25231;48.746;9.234;2023-03-03T06:07:51;96920.22;;;1.83;100.00
39555;BME280;25231;48.746;9.234;2023-03-03T06:10:16;96918.91;;;1.79;100.00
39555;BME280;25231;48.746;9.234;2023-03-03T06:12:41;96918.53;;;1.51;100.00
39555;BME280;25231;48.746;9.234;2023-03-03T06:15:08;96918.31;;;1.68;100.00
39555;BME280;25231;48.746;9.234;2023-03-03T06:17:33;96912.66;;;1.73;100.00
39555;BME280;25231;48.746;9.234;2023-03-03T06:19:59;96920.41;;;1.73;100.00
39555;BME280;25231;48.746;9.234;2023-03-03T06:22:24;96922.81;;;1.75;100.00
39555;BME280;25231;48.746;9.234;2023-03-03T06:24:49;96926.66;;;1.79;100.00
39555;BME280;25231;48.746;9.234;2023-03-03T06:27:16;96930.06;;;1.79;100.00
39555;BME280;25231;48.746;9.234;2023-03-03T06:29:42;96930.56;;;1.75;100.00
39555;BME280;25231;48.746;9.234;2023-03-03T06:32:07;96935.75;;;1.75;100.00
39555;BME280;25231;48.746;9.234;2023-03-03T06:34:32;96931.25;;;1.68;100.00
39555;BME280;25231;48.746;9.234;2023-03-03T06:36:58;96936.53;;;1.75;100.00
39555;BME280;25231;48.746;9.234;2023-03-03T06:39:23;96943.94;;;1.86;100.00
39555;BME280;25231;48.746;9.234;2023-03-03T06:41:49;96938.63;;;1.80;100.00
39555;BME280;25231;48.746;9.234;2023-03-03T06:44:14;96940.66;;;1.61;100.00
39555;BME280;25231;48.746;9.234;2023-03-03T06:46:39;96948.41;;;1.61;100.00
39555;BME280;25231;48.746;9.234;2023-03-03T06:49:05;96944.00;;;1.70;100.00
39555;BME280;25231;48.746;9.234;2023-03-03T06:51:35;96947.91;;;1.58;100.00
39555;BME280;25231;48.746;9.234;2023-03-03T06:54:18;96947.44;;;1.54;100.00
39555;BME280;25231;48.746;9.234;2023-03-03T06:56:45;96948.78;;;1.81;100.00
39555;BME280;25231;48.746;9.234;2023-03-03T06:59:18;96956.63;;;1.65;100.00
39555;BME280;25231;48.746;9.234;2023-03-03T07:01:46;96956.72;;;1.80;100.00
39555;BME280;25231;48.746;9.234;2023-03-03T07:04:23;96961.00;;;1.95;100.00
39555;BME280;25231;48.746;9.234;2023-03-03T07:07:24;96962.84;;;1.79;100.00
39555;BME280;25231;48.746;9.234;2023-03-03T07:09:52;96969.41;;;1.97;100.00
39555;BME280;25231;48.746;9.234;2023-03-03T07:12:23;96964.44;;;1.88;100.00
39555;BME280;25231;48.746;9.234;2023-03-03T07:14:54;96964.22;;;2.05;100.00
39555;BME280;25231;48.746;9.234;2023-03-03T07:17:23;96981.19;;;2.00;100.00
39555;BME280;25231;48.746;9.234;2023-03-03T07:19:49;96979.38;;;2.08;100.00
39555;BME280;25231;48.746;9.234;2023-03-03T07:22:21;96981.81;;;2.02;99.58
39555;BME280;25231;48.746;9.234;2023-03-03T07:24:50;96988.47;;;1.96;100.00
39555;BME280;25231;48.746;9.234;2023-03-03T07:27:25;96980.91;;;1.87;100.00
39555;BME280;25231;48.746;9.234;2023-03-03T07:29:53;96982.78;;;2.01;100.00
39555;BME280;25231;48.746;9.234;2023-03-03T07:32:27;96977.59;;;1.70;100.00
39555;BME280;25231;48.746;9.234;2023-03-03T07:34:58;96975.59;;;1.88;100.00
39555;BME280;25231;48.746;9.234;2023-03-03T07:37:37;96974.84;;;2.11;97.59
39555;BME280;25231;48.746;9.234;2023-03-03T07:42:50;96979.44;;;2.54;95.54
39555;BME280;25231;48.746;9.234;2023-03-03T07:45:22;96982.91;;;2.69;94.63
39555;BME280;25231;48.746;9.234;2023-03-03T07:47:49;96983.47;;;2.79;94.16
39555;BME280;25231;48.746;9.234;2023-03-03T07:50:18;96983.03;;;3.13;92.36
39555;BME280;25231;48.746;9.234;2023-03-03T07:53:00;96986.91;;;3.17;91.78
39555;BME280;25231;48.746;9.234;2023-03-03T07:55:40;96984.03;;;3.50;89.85
39555;BME280;25231;48.746;9.234;2023-03-03T08:03:09;96991.97;;;3.63;87.61
39555;BME280;25231;48.746;9.234;2023-03-03T08:05:41;96995.91;;;4.17;87.04
39555;BME280;25231;48.746;9.234;2023-03-03T08:08:29;96994.06;;;4.69;81.71
39555;BME280;25231;48.746;9.234;2023-03-03T08:10:59;96996.97;;;4.80;79.56
39555;BME280;25231;48.746;9.234;2023-03-03T08:13:43;97008.25;;;4.51;79.66
39555;BME280;25231;48.746;9.234;2023-03-03T08:23:31;97000.56;;;4.79;78.21
39555;BME280;25231;48.746;9.234;2023-03-03T08:25:56;97002.41;;;4.85;78.03
39555;BME280;25231;48.746;9.234;2023-03-03T08:28:22;96999.25;;;4.69;79.58
39555;BME280;25231;48.746;9.234;2023-03-03T08:30:48;97004.47;;;4.18;81.66
39555;BME280;25231;48.746;9.234;2023-03-03T08:33:14;97004.41;;;4.11;82.90
39555;BME280;25231;48.746;9.234;2023-03-03T08:35:41;97000.69;;;4.35;82.22
39555;BME280;25231;48.746;9.234;2023-03-03T08:38:07;96997.81;;;4.45;81.56
39555;BME280;25231;48.746;9.234;2023-03-03T08:40:34;96999.47;;;4.67;80.68
39555;BME280;25231;48.746;9.234;2023-03-03T08:42:59;96996.41;;;4.64;80.53
39555;BME280;25231;48.746;9.234;2023-03-03T08:45:25;96997.72;;;4.74;80.57
39555;BME280;25231;48.746;9.234;2023-03-03T08:47:51;96997.56;;;4.40;81.88
39555;BME280;25231;48.746;9.234;2023-03-03T08:50:17;97000.06;;;4.90;81.19
39555;BME280;25231;48.746;9.234;2023-03-03T08:52:43;96994.25;;;5.10;79.74
39555;BME280;25231;48.746;9.234;2023-03-03T08:55:09;97009.16;;;4.80;79.20
39555;BME280;25231;48.746;9.234;2023-03-03T08:57:35;97008.91;;;4.96;79.92
39555;BME280;25231;48.746;9.234;2023-03-03T09:00:00;97012.56;;;4.80;79.69
39555;BME280;25231;48.746;9.234;2023-03-03T09:02:26;97018.13;;;4.41;82.06
39555;BME280;25231;48.746;9.234;2023-03-03T09:04:51;97019.78;;;4.85;81.15
39555;BME280;25231;48.746;9.234;2023-03-03T09:07:16;97021.91;;;5.17;78.14
39555;BME280;25231;48.746;9.234;2023-03-03T09:09:42;97022.72;;;5.18;77.91
39555;BME280;25231;48.746;9.234;2023-03-03T09:12:17;97022.63;;;4.69;79.72
39555;BME280;25231;48.746;9.234;2023-03-03T09:14:42;97033.06;;;4.54;80.38
39555;BME280;25231;48.746;9.234;2023-03-03T09:17:37;97033.25;;;4.38;81.51
39555;BME280;25231;48.746;9.234;2023-03-03T09:20:22;97042.44;;;4.55;80.30
39555;BME280;25231;48.746;9.234;2023-03-03T09:22:49;97043.94;;;4.28;80.52
39555;BME280;25231;48.746;9.234;2023-03-03T09:25:30;97033.56;;;3.99;82.80
39555;BME280;25231;48.746;9.234;2023-03-03T09:27:56;97043.38;;;4.18;81.60
39555;BME280;25231;48.746;9.234;2023-03-03T09:32:50;97050.53;;;3.87;83.91
39555;BME280;25231;48.746;9.234;2023-03-03T09:35:37;97046.34;;;4.00;82.61
39555;BME280;25231;48.746;9.234;2023-03-03T09:38:26;97050.63;;;4.08;81.81
39555;BME280;25231;48.746;9.234;2023-03-03T09:43:40;97052.19;;;4.68;80.39
39555;BME280;25231;48.746;9.234;2023-03-03T09:46:35;97044.28;;;4.40;81.23
39555;BME280;25231;48.746;9.234;2023-03-03T09:54:33;97026.28;;;5.38;77.64
39555;BME280;25231;48.746;9.234;2023-03-03T10:05:10;97043.31;;;5.19;78.04
39555;BME280;25231;48.746;9.234;2023-03-03T10:07:46;97042.63;;;5.11;78.48
39555;BME280;25231;48.746;9.234;2023-03-03T10:10:37;97040.50;;;5.70;76.25
39555;BME280;25231;48.746;9.234;2023-03-03T10:16:06;97050.09;;;5.69;75.48
39555;BME280;25231;48.746;9.234;2023-03-03T10:29:54;97044.59;;;5.51;76.53
39555;BME280;25231;48.746;9.234;2023-03-03T10:38:12;97044.63;;;5.58;76.36
39555;BME280;25231;48.746;9.234;2023-03-03T10:46:15;97045.88;;;5.62;75.83
39555;BME280;25231;48.746;9.234;2023-03-03T10:49:01;97044.06;;;5.62;74.21
39555;BME280;25231;48.746;9.234;2023-03-03T11:06:21;97039.75;;;6.04;71.27
39555;BME280;25231;48.746;9.234;2023-03-03T11:08:38;97050.88;;;5.91;70.69
39555;BME280;25231;48.746;9.234;2023-03-03T11:11:28;97041.34;;;5.98;69.15
39555;BME280;25231;48.746;9.234;2023-03-03T11:14:11;97039.84;;;6.17;69.93
39555;BME280;25231;48.746;9.234;2023-03-03T11:16:49;97041.28;;;6.26;69.31
39555;BME280;25231;48.746;9.234;2023-03-03T11:22:16;97048.03;;;6.14;69.74
39555;BME280;25231;48.746;9.234;2023-03-03T11:30:23;97065.41;;;6.07;69.72
39555;BME280;25231;48.746;9.234;2023-03-03T11:33:44;97057.78;;;6.05;70.35
39555;BME280;25231;48.746;9.234;2023-03-03T11:36:30;97057.69;;;5.92;71.27
39555;BME280;25231;48.746;9.234;2023-03-03T11:38:59;97053.88;;;6.22;70.75
39555;BME280;25231;48.746;9.234;2023-03-03T11:41:38;97060.50;;;6.25;71.35
39555;BME280;25231;48.746;9.234;2023-03-03T11:44:21;97059.59;;;6.05;71.61
39555;BME280;25231;48.746;9.234;2023-03-03T11:46:49;97053.50;;;6.25;71.35
39555;BME280;25231;48.746;9.234;2023-03-03T11:49:26;97046.69;;;6.24;71.33
39555;BME280;25231;48.746;9.234;2023-03-03T11:55:04;97041.97;;;6.48;69.80
39555;BME280;25231;48.746;9.234;2023-03-03T11:57:41;97034.13;;;6.41;69.94
39555;BME280;25231;48.746;9.234;2023-03-03T12:09:08;97020.56;;;6.46;70.01
39555;BME280;25231;48.746;9.234;2023-03-03T12:11:28;97022.59;;;6.09;69.99
39555;BME280;25231;48.746;9.234;2023-03-03T12:14:16;97016.47;;;6.30;69.30
39555;BME280;25231;48.746;9.234;2023-03-03T12:17:00;97015.44;;;6.18;69.78
39555;BME280;25231;48.746;9.234;2023-03-03T12:19:34;97020.59;;;6.11;70.10
39555;BME280;25231;48.746;9.234;2023-03-03T12:32:29;97014.97;;;6.08;69.48
39555;BME280;25231;48.746;9.234;2023-03-03T12:35:57;97013.28;;;6.28;69.88
39555;BME280;25231;48.746;9.234;2023-03-03T12:43:38;97014.72;;;6.37;68.63
39555;BME280;25231;48.746;9.234;2023-03-03T12:46:19;97009.31;;;6.39;68.79
39555;BME280;25231;48.746;9.234;2023-03-03T12:48:46;97005.69;;;6.33;69.64
39555;BME280;25231;48.746;9.234;2023-03-03T12:56:38;96998.16;;;6.51;68.00
39555;BME280;25231;48.746;9.234;2023-03-03T13:02:02;97006.22;;;6.63;67.91
39555;BME280;25231;48.746;9.234;2023-03-03T13:04:40;96993.97;;;6.63;68.38
39555;BME280;25231;48.746;9.234;2023-03-03T13:15:23;97007.03;;;6.83;66.49
39555;BME280;25231;48.746;9.234;2023-03-03T13:18:20;96996.59;;;6.77;67.21
39555;BME280;25231;48.746;9.234;2023-03-03T13:20:53;97000.81;;;6.78;66.77
39555;BME280;25231;48.746;9.234;2023-03-03T13:23:37;97004.59;;;6.62;67.28
39555;BME280;25231;48.746;9.234;2023-03-03T13:26:26;96989.44;;;6.85;66.94
39555;BME280;25231;48.746;9.234;2023-03-03T13:31:59;96985.63;;;7.21;65.56
39555;BME280;25231;48.746;9.234;2023-03-03T13:34:38;96995.06;;;7.02;65.32
39555;BME280;25231;48.746;9.234;2023-03-03T13:37:19;96995.00;;;6.82;66.26
39555;BME280;25231;48.746;9.234;2023-03-03T13:40:21;96996.22;;;6.86;66.53
39555;BME280;25231;48.746;9.234;2023-03-03T13:42:48;96985.81;;;6.99;66.39
39555;BME280;25231;48.746;9.234;2023-03-03T13:48:05;96982.81;;;7.16;65.46
39555;BME280;25231;48.746;9.234;2023-03-03T13:50:50;96987.25;;;7.02;65.68
39555;BME280;25231;48.746;9.234;2023-03-03T13:56:12;96978.00;;;7.26;64.97
39555;BME280;25231;48.746;9.234;2023-03-03T14:07:04;96971.59;;;7.48;63.70
39555;BME280;25231;48.746;9.234;2023-03-03T14:09:59;96973.63;;;7.39;63.75
39555;BME280;25231;48.746;9.234;2023-03-03T14:12:43;96969.59;;;7.50;63.77
39555;BME280;25231;48.746;9.234;2023-03-03T14:15:33;96970.59;;;7.49;64.06
39555;BME280;25231;48.746;9.234;2023-03-03T14:20:52;96964.75;;;7.47;63.69
39555;BME280;25231;48.746;9.234;2023-03-03T14:26:10;96962.97;;;7.15;63.57
39555;BME280;25231;48.746;9.234;2023-03-03T14:28:39;96959.38;;;7.16;64.28
39555;BME280;25231;48.746;9.234;2023-03-03T14:31:24;96964.38;;;7.10;64.28
39555;BME280;25231;48.746;9.234;2023-03-03T14:34:00;96969.00;;;7.28;64.51
39555;BME280;25231;48.746;9.234;2023-03-03T14:36:31;96963.56;;;7.36;64.05
39555;BME280;25231;48.746;9.234;2023-03-03T14:38:57;96966.75;;;7.58;63.95
39555;BME280;25231;48.746;9.234;2023-03-03T14:41:40;96969.59;;;7.50;63.38
39555;BME280;25231;48.746;9.234;2023-03-03T14:47:23;96953.13;;;7.56;62.90
39555;BME280;25231;48.746;9.234;2023-03-03T14:49:50;96957.16;;;7.39;63.86
39555;BME280;25231;48.746;9.234;2023-03-03T14:54:44;96958.78;;;7.40;63.90
39555;BME280;25231;48.746;9.234;2023-03-03T14:59:59;96961.19;;;7.35;63.94
39555;BME280;25231;48.746;9.234;2023-03-03T15:02:58;96948.13;;;7.41;63.81
39555;BME280;25231;48.746;9.234;2023-03-03T15:05:28;96953.75;;;7.38;64.15
39555;BME280;25231;48.746;9.234;2023-03-03T15:08:14;96958.97;;;7.51;64.07
39555;BME280;25231;48.746;9.234;2023-03-03T15:10:42;96951.72;;;7.47;63.26
39555;BME280;25231;48.746;9.234;2023-03-03T15:18:26;96955.53;;;7.58;64.04
39555;BME280;25231;48.746;9.234;2023-03-03T15:21:04;96943.09;;;7.53;63.55
39555;BME280;25231;48.746;9.234;2023-03-03T15:26:46;96938.91;;;7.45;64.05
39555;BME280;25231;48.746;9.234;2023-03-03T15:29:22;96945.50;;;7.55;63.89
39555;BME280;25231;48.746;9.234;2023-03-03T15:32:01;96941.50;;;7.45;63.86
39555;BME280;25231;48.746;9.234;2023-03-03T15:43:02;96943.50;;;7.30;65.08
39555;BME280;25231;48.746;9.234;2023-03-03T15:56:47;96945.69;;;7.53;64.51
39555;BME280;25231;48.746;9.234;2023-03-03T15:59:24;96951.13;;;7.51;64.44
39555;BME280;25231;48.746;9.234;2023-03-03T16:02:14;96945.72;;;7.46;64.86
39555;BME280;25231;48.746;9.234;2023-03-03T16:04:51;96948.72;;;7.57;64.69
39555;BME280;25231;48.746;9.234;2023-03-03T16:23:50;96959.78;;;7.52;65.01
39555;BME280;25231;48.746;9.234;2023-03-03T16:26:34;96965.59;;;7.34;65.04
39555;BME280;25231;48.746;9.234;2023-03-03T16:35:10;96968.19;;;7.21;65.94
39555;BME280;25231;48.746;9.234;2023-03-03T16:37:54;96968.00;;;7.16;66.46
39555;BME280;25231;48.746;9.234;2023-03-03T16:40:25;96968.19;;;7.08;66.72
39555;BME280;25231;48.746;9.234;2023-03-03T16:42:58;96975.22;;;7.07;66.75
39555;BME280;25231;48.746;9.234;2023-03-03T16:45:33;96975.63;;;7.11;66.67
39555;BME280;25231;48.746;9.234;2023-03-03T16:48:39;96983.44;;;7.04;67.00
39555;BME280;25231;48.746;9.234;2023-03-03T16:54:02;96990.03;;;6.94;67.35
39555;BME280;25231;48.746;9.234;2023-03-03T17:01:57;97002.63;;;6.77;68.29
39555;BME280;25231;48.746;9.234;2023-03-03T17:04:55;97003.19;;;6.66;68.51
39555;BME280;25231;48.746;9.234;2023-03-03T17:15:31;97009.16;;;6.53;69.25
39555;BME280;25231;48.746;9.234;2023-03-03T17:18:17;97015.38;;;6.59;69.61